Hovedside
METAR-TAF:

METAR-TAF

Lufthavner :

Sandakan, Malaysia

breddegrad: 05-54N, lengdegrad: 118-04E, høyde over havet: 12 m

Gjeldene værobservasjon

Denne rapporten ble laget for 1 time og 19 minutter siden, klokken 10:00 UTC
Vind 2 kt fra skiftende retning
Temperatur 29°C
Luftfuktighet 84%
Trykk 1006 hPa
Sikt 10 km eller mer
Få skyer i en høyde av 1600 ft

METAR: WBKS 201000Z VRB02KT 9999 FEW016 29/26 Q1006

Tid: 19:19 (11:19 UTC)

Varsel

Denne rapporten ble laget for 6 timer og 19 minutter siden, klokken 05:00 UTC
Varsel gyldig fra 20. klokken 06 UTC til 21. klokken 06 UTC
Vind 5 kt fra Sørvest
Sikt 10 km eller mer
Få skyer i en høyde av 1600 ft
Midlertidig
fra 20. klokken 07 UTC til 20. klokken 10 UTC
Sikt: 5000 m
Få skyer i en høyde av 1300 ft
Spredte skyer i en høyde av 3000 ft
regn,

TAF: WBKS 200500Z 2006/2106 22005KT 9999 FEW016 TEMPO 2007/2010 5000 RA FEW013 SCT030

Værobservasjoner og værvarsel for over 4000 flyplasser (METAR- og TAF-rapporter).

Tilgjengelige stasjoner er representert av de røde og gule prikkene på kartet.

Hold musepekeren over prikken for å se navnet på stasjonen.

Klikk så for å se værobservasjoner og -varsler.

For å forandre kartet kan du klikke på den grønne knappen med svart kryss for å zoome inn, på den grønne knappen med strek for å zoome ut, eller på de grønne pilene for å se tilstøtende kart.


METAR-TAF: